West Glenville, New York
Current Conditions -  °F | °C
As of 5:15 PM on Sunday 25 Jan 2015 (Local Time) from KNY0 Reporting Station
Clear Clear  
Wind Chill:   Ceiling: Unl
Heat Index: 14°   Visibility: 10mi
Dew Point:   Wind: 10mph
Humidity: 55%   Direction: 280°W
Pressure: 29.9"   Gusts: 20mph
Location:  42.9741°N, 74.1271°W
Report Text: KNY0 252215Z AUTO 28009G17KT 10SM CLR M10/M17 A2990 RMK AO2 T10981173
Loading
Personal Weather Stations






























Interactive Weather Map New forecast layout! Learn more

10-Day Weather Forecast

Advertisements
Track Severe Weather on mobile